Time;durP1;ratioP1;P1;durP2;ratioP2;P2;SDS_P1;SDS_P2;PMS_P1;PMS_P2;Temp;Humidity;BMP_temperature;BMP_pressure;BME280_temperature;BME280_humidity;BME280_pressure;Samples;Min_cycle;Max_cycle;Signal;HPM_P1;HPM_P2
2023/06/10 00:01:46;;;;;;;4.40;4.00;;;23.70;77.10;;;;;;5041805;28;20024;-42
2023/06/10 00:04:13;;;;;;;5.13;4.40;;;23.70;77.20;;;;;;5042327;28;20108;-44
2023/06/10 00:06:39;;;;;;;4.47;4.10;;;23.70;77.30;;;;;;5042400;28;20104;-43
2023/06/10 00:09:05;;;;;;;4.57;4.18;;;23.60;77.40;;;;;;5044496;28;20060;-41
2023/06/10 00:11:34;;;;;;;4.85;4.05;;;23.60;77.40;;;;;;5046025;28;20083;-43
2023/06/10 00:14:00;;;;;;;4.70;4.20;;;23.50;77.50;;;;;;5045995;28;20029;-43
2023/06/10 00:16:26;;;;;;;4.70;4.30;;;23.50;77.60;;;;;;5044518;28;20134;-45
2023/06/10 00:18:51;;;;;;;6.18;4.55;;;23.50;77.70;;;;;;5045918;28;20116;-42
2023/06/10 00:21:18;;;;;;;4.20;3.80;;;23.50;77.80;;;;;;5045403;28;20033;-43
2023/06/10 00:23:44;;;;;;;5.47;4.50;;;23.50;77.80;;;;;;5045066;28;20025;-45
2023/06/10 00:26:10;;;;;;;4.53;4.13;;;23.50;77.70;;;;;;5045467;28;20467;-42
2023/06/10 00:28:35;;;;;;;4.15;3.78;;;23.40;77.80;;;;;;5045755;28;20082;-44
2023/06/10 00:31:02;;;;;;;5.00;4.38;;;23.40;77.70;;;;;;5044996;28;20017;-43
2023/06/10 00:33:28;;;;;;;5.57;4.15;;;23.40;77.70;;;;;;5045576;28;20480;-44
2023/06/10 00:35:53;;;;;;;4.72;4.32;;;23.40;77.70;;;;;;5045780;28;20055;-43
2023/06/10 00:38:19;;;;;;;4.60;4.20;;;23.30;77.70;;;;;;5044891;28;20037;-44
2023/06/10 00:40:44;;;;;;;5.05;4.10;;;23.30;77.60;;;;;;5045541;28;20032;-43
2023/06/10 00:43:10;;;;;;;5.07;4.28;;;23.20;77.30;;;;;;5045450;28;20047;-43
2023/06/10 00:45:36;;;;;;;4.85;4.20;;;23.20;77.20;;;;;;5044626;28;20683;-43
2023/06/10 00:48:03;;;;;;;6.25;4.13;;;23.20;77.10;;;;;;5046125;28;20026;-43
2023/06/10 00:50:28;;;;;;;4.70;4.30;;;23.20;77.00;;;;;;5045074;28;20029;-43
2023/06/10 00:52:55;;;;;;;5.03;4.25;;;23.20;76.80;;;;;;5044866;28;20106;-43
2023/06/10 00:55:21;;;;;;;4.57;4.13;;;23.20;76.80;;;;;;5045050;28;20097;-43
2023/06/10 00:57:48;;;;;;;4.55;3.72;;;23.10;76.60;;;;;;5044002;28;20021;-42
2023/06/10 01:00:15;;;;;;;4.20;3.90;;;23.10;76.60;;;;;;5045401;28;20048;-43
2023/06/10 01:02:41;;;;;;;5.90;4.22;;;23.10;76.50;;;;;;5045307;28;20017;-44
2023/06/10 01:05:07;;;;;;;4.30;3.90;;;23.10;76.40;;;;;;5044079;28;20412;-42
2023/06/10 01:08:05;;;;;;;4.50;4.07;;;23.10;76.40;;;;;;5044891;28;20029;-44
2023/06/10 01:10:39;;;;;;;4.50;4.03;;;23.00;76.30;;;;;;5025042;28;20460;-43
2023/06/10 01:13:11;;;;;;;6.05;4.10;;;23.00;76.10;;;;;;5040158;28;20131;-44
2023/06/10 01:15:37;;;;;;;;;;;23.00;76.10;;;;;;5045613;28;20156;-42
2023/06/10 01:18:14;;;;;;;6.35;4.05;;;23.00;76.20;;;;;;5045566;28;20018;-44
2023/06/10 01:20:42;;;;;;;4.25;3.85;;;22.90;76.00;;;;;;5044354;28;20662;-44
2023/06/10 01:23:09;;;;;;;4.13;3.70;;;22.90;76.00;;;;;;5045327;28;20025;-44
2023/06/10 01:25:38;;;;;;;5.88;4.25;;;22.90;76.00;;;;;;5044915;28;20211;-43
2023/06/10 01:28:27;;;;;;;4.47;3.47;;;22.80;75.90;;;;;;5044164;28;20070;-43
2023/06/10 01:31:02;;;;;;;4.40;4.00;;;22.80;76.00;;;;;;5045186;28;20017;-42
2023/06/10 01:33:31;;;;;;;4.60;4.10;;;22.80;76.00;;;;;;5043666;28;20025;-43
2023/06/10 01:35:58;;;;;;;5.57;4.25;;;22.70;75.90;;;;;;5044801;28;20046;-43
2023/06/10 01:38:26;;;;;;;4.95;4.13;;;22.70;76.00;;;;;;5043667;28;20037;-42
2023/06/10 01:40:55;;;;;;;6.78;4.28;;;22.70;76.10;;;;;;5043875;28;20037;-44
2023/06/10 01:43:21;;;;;;;4.13;3.50;;;22.70;76.10;;;;;;5044043;28;20066;-43
2023/06/10 01:45:47;;;;;;;6.53;4.00;;;22.60;76.10;;;;;;5044511;28;20037;-43
2023/06/10 01:48:12;;;;;;;5.75;4.20;;;22.60;76.20;;;;;;5043424;28;20030;-43
2023/06/10 01:50:38;;;;;;;5.32;4.28;;;22.60;76.30;;;;;;5043940;28;20047;-43
2023/06/10 01:53:05;;;;;;;4.55;4.05;;;22.50;76.30;;;;;;5043965;28;20047;-42
2023/06/10 01:55:31;;;;;;;4.40;4.00;;;22.50;76.40;;;;;;5043839;28;20017;-43
2023/06/10 01:57:56;;;;;;;4.93;4.43;;;22.50;76.50;;;;;;5044601;28;20036;-43
2023/06/10 02:00:22;;;;;;;5.53;4.25;;;22.50;76.60;;;;;;5043767;28;20083;-43
2023/06/10 02:02:47;;;;;;;5.40;3.75;;;22.40;76.60;;;;;;5043694;28;20061;-44
2023/06/10 02:05:13;;;;;;;4.75;3.72;;;22.40;76.70;;;;;;5043448;28;20075;-43
2023/06/10 02:07:38;;;;;;;5.45;3.67;;;22.30;76.80;;;;;;5043532;28;20029;-42
2023/06/10 02:10:05;;;;;;;4.95;4.00;;;22.30;76.90;;;;;;5043752;28;20750;-44
2023/06/10 02:12:31;;;;;;;5.07;3.90;;;22.30;77.10;;;;;;5043198;28;20017;-43
2023/06/10 02:14:56;;;;;;;5.00;4.00;;;22.30;77.10;;;;;;5043280;28;20031;-43
2023/06/10 02:17:23;;;;;;;4.45;4.03;;;22.20;77.30;;;;;;5043798;28;20082;-43
2023/06/10 02:19:52;;;;;;;4.80;4.03;;;22.20;77.50;;;;;;5043672;28;20044;-43
2023/06/10 02:22:22;;;;;;;5.50;3.83;;;22.20;77.60;;;;;;5042738;28;20033;-43
2023/06/10 02:24:47;;;;;;;4.55;3.95;;;22.10;77.70;;;;;;5043392;28;20063;-44
2023/06/10 02:27:16;;;;;;;5.07;3.92;;;22.10;77.90;;;;;;5044141;28;20108;-43
2023/06/10 02:29:41;;;;;;;5.63;4.38;;;22.10;78.10;;;;;;5042744;28;20096;-43
2023/06/10 02:32:07;;;;;;;5.32;3.92;;;22.10;78.30;;;;;;5042910;28;20160;-44
2023/06/10 02:34:33;;;;;;;5.45;4.03;;;22.00;78.40;;;;;;5043092;28;20032;-44
2023/06/10 02:37:02;;;;;;;6.07;4.07;;;22.00;78.60;;;;;;5042958;28;20036;-44
2023/06/10 02:39:28;;;;;;;6.15;4.00;;;22.00;78.90;;;;;;5043146;28;20045;-44
2023/06/10 02:41:54;;;;;;;5.03;4.32;;;21.90;78.90;;;;;;5043535;28;20032;-43
2023/06/10 02:44:20;;;;;;;4.65;4.13;;;21.90;79.10;;;;;;5041966;28;20024;-43
2023/06/10 02:46:45;;;;;;;5.55;4.70;;;21.90;79.30;;;;;;5043227;28;20032;-44
2023/06/10 02:49:12;;;;;;;4.70;4.00;;;21.90;79.60;;;;;;5043744;28;20363;-43
2023/06/10 02:51:38;;;;;;;4.32;3.85;;;21.80;79.70;;;;;;5042287;28;20133;-41
2023/06/10 02:54:04;;;;;;;5.70;4.30;;;21.80;79.80;;;;;;5043807;28;20173;-42
2023/06/10 02:56:30;;;;;;;5.25;4.57;;;21.80;80.00;;;;;;5042409;28;20033;-43
2023/06/10 02:58:55;;;;;;;4.90;3.65;;;21.80;80.10;;;;;;5042600;28;20047;-44
2023/06/10 03:01:21;;;;;;;4.45;4.00;;;21.80;80.20;;;;;;5043224;28;20105;-44
2023/06/10 03:03:47;;;;;;;4.80;4.07;;;21.70;80.40;;;;;;5043376;28;20429;-43
2023/06/10 03:06:13;;;;;;;4.38;3.97;;;21.70;80.50;;;;;;5042314;28;20021;-43
2023/06/10 03:08:40;;;;;;;4.38;3.97;;;21.70;80.70;;;;;;5042931;28;20056;-44
2023/06/10 03:11:05;;;;;;;6.70;4.18;;;21.70;80.80;;;;;;5043451;28;20124;-42
2023/06/10 03:13:31;;;;;;;6.15;4.30;;;21.70;81.00;;;;;;5041642;28;20469;-43
2023/06/10 03:15:57;;;;;;;4.45;3.80;;;21.70;81.20;;;;;;5042935;28;20032;-43
2023/06/10 03:18:27;;;;;;;5.07;4.10;;;21.60;81.20;;;;;;5041808;28;20052;-43
2023/06/10 03:20:53;;;;;;;4.57;3.53;;;21.50;81.30;;;;;;5043324;28;20041;-42
2023/06/10 03:23:19;;;;;;;4.82;4.32;;;21.50;81.40;;;;;;5042994;28;20017;-43
2023/06/10 03:25:45;;;;;;;4.55;3.92;;;21.50;81.50;;;;;;5042619;28;20091;-43
2023/06/10 03:28:11;;;;;;;5.28;4.15;;;21.50;81.80;;;;;;5041952;28;20021;-42
2023/06/10 03:30:36;;;;;;;5.40;4.32;;;21.50;81.80;;;;;;5043828;28;20044;-42
2023/06/10 03:33:02;;;;;;;5.25;4.75;;;21.40;81.80;;;;;;5043067;28;20036;-43
2023/06/10 03:35:27;;;;;;;5.45;3.75;;;21.40;82.00;;;;;;5043110;28;20422;-43
2023/06/10 03:37:53;;;;;;;5.93;4.38;;;21.40;82.10;;;;;;5043703;28;20021;-42
2023/06/10 03:40:19;;;;;;;5.05;3.97;;;21.30;82.10;;;;;;5042540;28;20416;-44
2023/06/10 03:42:44;;;;;;;6.72;4.07;;;21.30;82.30;;;;;;5043963;28;20124;-43
2023/06/10 03:45:10;;;;;;;7.43;4.18;;;21.30;82.40;;;;;;5047408;28;20036;-44
2023/06/10 03:47:37;;;;;;;5.07;3.90;;;21.30;82.50;;;;;;5045864;28;20411;-43
2023/06/10 03:50:05;;;;;;;7.90;4.20;;;21.20;82.50;;;;;;5047604;28;20037;-43
2023/06/10 03:52:31;;;;;;;4.47;3.95;;;21.20;82.70;;;;;;5046083;28;20041;-43
2023/06/10 03:54:56;;;;;;;4.68;3.80;;;21.20;82.80;;;;;;5046366;28;20425;-44
2023/06/10 03:57:22;;;;;;;6.20;3.90;;;21.10;82.80;;;;;;5046872;28;20552;-42
2023/06/10 03:59:48;;;;;;;4.45;4.05;;;21.10;82.90;;;;;;5046375;28;20144;-44
2023/06/10 04:02:13;;;;;;;4.70;4.13;;;21.10;83.00;;;;;;5045605;28;20039;-43
2023/06/10 04:04:39;;;;;;;7.30;4.35;;;21.10;83.20;;;;;;5046289;28;20072;-44
2023/06/10 04:07:05;;;;;;;4.22;3.83;;;21.00;83.20;;;;;;5046789;28;20029;-43
2023/06/10 04:09:31;;;;;;;4.43;4.03;;;21.00;83.40;;;;;;5044960;28;20461;-43
2023/06/10 04:11:57;;;;;;;5.47;4.53;;;21.00;83.50;;;;;;5047294;28;20112;-42
2023/06/10 04:14:22;;;;;;;4.88;3.90;;;21.00;83.70;;;;;;5045638;28;20094;-44
2023/06/10 04:16:50;;;;;;;4.47;4.05;;;21.00;83.80;;;;;;5046208;28;20176;-43
2023/06/10 04:19:16;;;;;;;5.00;3.92;;;21.00;83.80;;;;;;5045845;28;20037;-44
2023/06/10 04:21:42;;;;;;;4.88;3.90;;;20.90;83.90;;;;;;5045367;28;20021;-44
2023/06/10 04:24:07;;;;;;;4.90;3.58;;;20.90;83.90;;;;;;5046035;28;20047;-42
2023/06/10 04:26:34;;;;;;;5.88;4.50;;;20.90;84.00;;;;;;5045490;28;20032;-42
2023/06/10 04:29:00;;;;;;;5.85;3.92;;;20.90;84.20;;;;;;5045191;28;20021;-43
2023/06/10 04:31:25;;;;;;;4.80;4.10;;;20.90;84.30;;;;;;5045293;28;20021;-43
2023/06/10 04:33:51;;;;;;;5.82;4.53;;;20.90;84.40;;;;;;5046248;28;20025;-43
2023/06/10 04:36:17;;;;;;;5.07;4.20;;;20.90;84.60;;;;;;5044375;28;20032;-43
2023/06/10 04:38:43;;;;;;;4.47;4.03;;;20.90;84.60;;;;;;5045776;28;20484;-44
2023/06/10 04:41:08;;;;;;;6.30;4.28;;;20.90;84.70;;;;;;5046246;28;20037;-42
2023/06/10 04:43:34;;;;;;;5.68;4.22;;;20.90;84.70;;;;;;5045078;28;20017;-43
2023/06/10 04:45:59;;;;;;;5.22;4.30;;;20.90;84.80;;;;;;5046049;28;20068;-43
2023/06/10 04:48:25;;;;;;;5.55;4.05;;;21.00;84.90;;;;;;5045548;28;20368;-42
2023/06/10 04:50:50;;;;;;;5.32;4.25;;;21.00;85.00;;;;;;5044716;28;21143;-42
2023/06/10 04:53:16;;;;;;;5.55;3.90;;;20.90;85.10;;;;;;5045018;28;20053;-42
2023/06/10 04:55:42;;;;;;;5.68;4.10;;;21.00;85.20;;;;;;5044883;28;20029;-43
2023/06/10 04:58:07;;;;;;;4.75;4.10;;;21.00;85.30;;;;;;5045522;28;20032;-43
2023/06/10 05:00:33;;;;;;;5.90;3.95;;;21.00;85.40;;;;;;5044808;28;20051;-42
2023/06/10 05:02:58;;;;;;;5.57;4.30;;;21.00;85.50;;;;;;5045852;28;20017;-43
2023/06/10 05:05:24;;;;;;;4.95;3.80;;;21.00;86.20;;;;;;5044237;28;20021;-43
2023/06/10 05:07:50;;;;;;;5.07;4.32;;;21.00;85.60;;;;;;5045767;28;20064;-43
2023/06/10 05:10:15;;;;;;;6.25;4.30;;;21.00;85.70;;;;;;5045390;28;20037;-42
2023/06/10 05:12:41;;;;;;;4.85;3.83;;;21.00;85.70;;;;;;5045031;28;20476;-44
2023/06/10 05:15:07;;;;;;;5.85;4.47;;;21.00;85.80;;;;;;5045378;28;20365;-43
2023/06/10 05:17:33;;;;;;;5.35;3.65;;;21.00;85.80;;;;;;5044524;28;20025;-43
2023/06/10 05:19:58;;;;;;;4.57;4.00;;;21.00;85.80;;;;;;5044778;28;20037;-43
2023/06/10 05:22:24;;;;;;;5.57;3.90;;;21.10;85.90;;;;;;5044814;28;20024;-44
2023/06/10 05:24:50;;;;;;;7.47;4.10;;;21.10;86.00;;;;;;5044610;28;20033;-43
2023/06/10 05:27:16;;;;;;;4.45;3.50;;;21.10;86.00;;;;;;5044932;28;20023;-44
2023/06/10 05:29:42;;;;;;;4.50;3.58;;;21.10;86.00;;;;;;5045215;28;20033;-43
2023/06/10 05:32:08;;;;;;;4.00;3.60;;;21.10;86.10;;;;;;5044049;28;20021;-43
2023/06/10 05:34:34;;;;;;;4.40;4.00;;;21.10;86.10;;;;;;5044383;28;20029;-42
2023/06/10 05:36:59;;;;;;;6.68;3.85;;;21.20;86.20;;;;;;5044946;28;20029;-41
2023/06/10 05:39:25;;;;;;;4.53;3.67;;;21.20;86.20;;;;;;5042945;28;20044;-43
2023/06/10 05:41:50;;;;;;;5.53;4.13;;;21.20;86.20;;;;;;5044814;28;20032;-44
2023/06/10 05:44:16;;;;;;;4.32;3.55;;;21.20;86.20;;;;;;5044748;28;20021;-45
2023/06/10 05:46:41;;;;;;;5.90;4.10;;;21.30;86.20;;;;;;5043355;28;20016;-42
2023/06/10 05:49:07;;;;;;;5.75;3.90;;;21.30;86.20;;;;;;5045304;28;20078;-43
2023/06/10 05:51:33;;;;;;;6.20;3.72;;;21.30;86.20;;;;;;5043330;28;20548;-42
2023/06/10 05:53:58;;;;;;;6.22;3.90;;;21.30;86.20;;;;;;5043008;28;20053;-43
2023/06/10 05:56:25;;;;;;;4.18;3.63;;;21.40;86.20;;;;;;5041629;28;20025;-43
2023/06/10 05:58:51;;;;;;;4.43;4.03;;;21.40;86.20;;;;;;5044056;28;20751;-43
2023/06/10 06:01:16;;;;;;;5.10;4.00;;;21.40;86.10;;;;;;5042671;28;20063;-43
2023/06/10 06:03:43;;;;;;;4.47;3.58;;;21.40;86.20;;;;;;5043520;28;20053;-44
2023/06/10 06:06:09;;;;;;;5.88;3.65;;;21.40;86.20;;;;;;5042338;28;20039;-43
2023/06/10 06:08:34;;;;;;;3.85;3.45;;;21.50;86.20;;;;;;5042145;28;20024;-42
2023/06/10 06:11:00;;;;;;;4.07;3.65;;;21.50;86.20;;;;;;5043489;28;20025;-44
2023/06/10 06:13:25;;;;;;;4.07;3.67;;;21.50;86.20;;;;;;5042206;28;20040;-44
2023/06/10 06:15:51;;;;;;;4.15;3.30;;;21.60;86.10;;;;;;5043407;28;20037;-44
2023/06/10 06:18:18;;;;;;;5.35;4.03;;;21.60;86.00;;;;;;5043299;28;20108;-44
2023/06/10 06:20:43;;;;;;;4.55;3.80;;;21.60;86.00;;;;;;5043458;28;20334;-43
2023/06/10 06:23:10;;;;;;;3.78;3.47;;;21.70;85.90;;;;;;5043035;28;20522;-43
2023/06/10 06:25:37;;;;;;;5.53;3.72;;;21.70;85.90;;;;;;5042718;28;20041;-44
2023/06/10 06:28:02;;;;;;;4.22;3.45;;;21.70;85.70;;;;;;5043485;28;20076;-43
2023/06/10 06:30:28;;;;;;;5.05;3.63;;;21.80;85.70;;;;;;5041768;28;20075;-43
2023/06/10 06:32:53;;;;;;;5.05;3.97;;;21.80;85.60;;;;;;5043747;28;20028;-44
2023/06/10 06:35:19;;;;;;;3.88;3.47;;;21.90;85.60;;;;;;5042986;28;20029;-42
2023/06/10 06:37:45;;;;;;;4.60;3.88;;;21.80;85.40;;;;;;5032156;28;20029;-43
2023/06/10 06:40:11;;;;;;;4.38;3.70;;;21.90;85.40;;;;;;5043755;28;20037;-42
2023/06/10 06:42:36;;;;;;;4.72;3.70;;;21.90;85.40;;;;;;5042047;28;20122;-43
2023/06/10 06:45:02;;;;;;;5.53;4.10;;;22.00;85.40;;;;;;5043838;28;20385;-43
2023/06/10 06:47:28;;;;;;;5.57;3.72;;;22.00;85.40;;;;;;5042829;28;20107;-43
2023/06/10 06:49:53;;;;;;;4.95;3.50;;;22.10;85.50;;;;;;5042629;28;20025;-43
2023/06/10 06:52:19;;;;;;;4.20;3.80;;;22.10;85.50;;;;;;5043129;28;20366;-44
2023/06/10 06:54:45;;;;;;;4.93;3.40;;;22.20;85.50;;;;;;5043077;28;20594;-43
2023/06/10 06:57:10;;;;;;;3.92;3.50;;;22.10;85.40;;;;;;5042885;28;20495;-43
2023/06/10 06:59:36;;;;;;;4.30;3.50;;;22.20;85.30;;;;;;5041992;28;20250;-42
2023/06/10 07:02:03;;;;;;;4.32;3.50;;;22.20;85.20;;;;;;5043103;28;20098;-44
2023/06/10 07:04:28;;;;;;;4.07;3.50;;;22.30;85.30;;;;;;5042123;28;20033;-43
2023/06/10 07:06:54;;;;;;;4.15;3.67;;;22.30;85.30;;;;;;5042689;28;20028;-42
2023/06/10 07:09:20;;;;;;;3.88;3.47;;;22.30;85.20;;;;;;5040203;28;20021;-43
2023/06/10 07:11:45;;;;;;;4.40;3.72;;;22.40;85.10;;;;;;5042083;28;20041;-43
2023/06/10 07:14:11;;;;;;;4.25;3.80;;;22.50;84.90;;;;;;5043881;28;20036;-43
2023/06/10 07:16:36;;;;;;;4.18;3.47;;;22.40;84.80;;;;;;5043286;28;20418;-44
2023/06/10 07:19:02;;;;;;;4.70;3.65;;;22.50;84.80;;;;;;5047307;28;20025;-43
2023/06/10 07:21:28;;;;;;;4.13;3.55;;;22.50;84.80;;;;;;5047088;28;20052;-43
2023/06/10 07:23:54;;;;;;;4.70;3.30;;;22.60;84.70;;;;;;5046843;28;20029;-43
2023/06/10 07:26:21;;;;;;;6.07;3.55;;;22.60;84.70;;;;;;5046663;28;20110;-43
2023/06/10 07:28:47;;;;;;;5.45;3.42;;;22.60;84.80;;;;;;5047124;28;20033;-44
2023/06/10 07:31:13;;;;;;;4.25;3.45;;;22.70;84.70;;;;;;5046790;28;20098;-43
2023/06/10 07:33:41;;;;;;;5.30;3.40;;;22.80;84.80;;;;;;5046250;28;20024;-44
2023/06/10 07:36:07;;;;;;;3.10;2.70;;;22.80;84.70;;;;;;5046888;28;20645;-42
2023/06/10 07:38:33;;;;;;;3.10;2.72;;;22.90;84.70;;;;;;5045454;28;20032;-43
2023/06/10 07:40:59;;;;;;;2.78;2.58;;;23.00;84.60;;;;;;5046910;28;20043;-42
2023/06/10 07:43:25;;;;;;;4.95;2.75;;;23.00;84.50;;;;;;5046456;28;20132;-44
2023/06/10 07:45:51;;;;;;;3.15;2.85;;;23.10;84.60;;;;;;5046301;28;20112;-43
2023/06/10 07:48:16;;;;;;;3.92;2.83;;;23.10;84.50;;;;;;5048017;28;20021;-43
2023/06/10 07:50:42;;;;;;;4.32;3.00;;;23.20;84.50;;;;;;5046622;28;20017;-43
2023/06/10 07:53:07;;;;;;;4.30;3.05;;;23.20;84.20;;;;;;5046230;28;20523;-42
2023/06/10 07:55:33;;;;;;;3.25;2.85;;;23.30;84.00;;;;;;5046134;28;20491;-43
2023/06/10 07:57:59;;;;;;;4.20;3.30;;;23.30;83.80;;;;;;5047008;28;20027;-43
2023/06/10 08:00:24;;;;;;;3.95;2.90;;;23.40;83.60;;;;;;5044911;28;20040;-44
2023/06/10 08:02:53;;;;;;;5.18;3.00;;;23.40;83.50;;;;;;5047160;28;20366;-43
2023/06/10 08:05:18;;;;;;;3.58;2.97;;;23.40;83.30;;;;;;5046099;28;20044;-43
2023/06/10 08:07:44;;;;;;;4.65;3.13;;;23.50;83.20;;;;;;5045552;28;20029;-43
2023/06/10 08:10:10;;;;;;;4.40;3.17;;;23.50;83.20;;;;;;5047205;28;20029;-44
2023/06/10 08:12:36;;;;;;;3.85;3.03;;;23.60;83.20;;;;;;5045576;28;20031;-43
2023/06/10 08:15:03;;;;;;;3.90;3.00;;;23.60;83.10;;;;;;5046011;28;20035;-43
2023/06/10 08:17:32;;;;;;;3.00;2.70;;;23.70;82.90;;;;;;5045814;28;20033;-43
2023/06/10 08:19:58;;;;;;;3.45;2.90;;;23.80;82.90;;;;;;5046856;28;20116;-43
2023/06/10 08:22:23;;;;;;;3.58;2.97;;;23.80;83.10;;;;;;5045377;28;20031;-43
2023/06/10 08:24:49;;;;;;;2.78;2.35;;;23.80;83.10;;;;;;5046573;28;20111;-44
2023/06/10 08:27:15;;;;;;;2.63;2.42;;;23.90;83.20;;;;;;5046469;28;20028;-44
2023/06/10 08:29:40;;;;;;;3.08;2.78;;;23.90;83.20;;;;;;5044232;28;20024;-42
2023/06/10 08:32:06;;;;;;;3.30;2.80;;;24.00;83.00;;;;;;5045444;28;20017;-44
2023/06/10 08:34:35;;;;;;;3.78;2.83;;;24.00;82.80;;;;;;5045688;28;20029;-43
2023/06/10 08:37:01;;;;;;;3.08;2.53;;;24.10;82.90;;;;;;5045458;28;20082;-43
2023/06/10 08:39:27;;;;;;;3.40;3.10;;;24.10;83.00;;;;;;5045788;28;20040;-43
2023/06/10 08:42:18;;;;;;;2.83;2.47;;;24.10;82.80;;;;;;5045524;28;20372;-42
2023/06/10 08:44:46;;;;;;;3.08;2.78;;;24.10;82.60;;;;;;5037397;28;20116;-43
2023/06/10 08:47:16;;;;;;;4.03;2.60;;;24.20;82.50;;;;;;5045849;28;20342;-43
2023/06/10 08:49:45;;;;;;;3.70;2.55;;;24.20;82.20;;;;;;5044495;28;20092;-44
2023/06/10 08:52:17;;;;;;;2.88;2.67;;;24.30;82.10;;;;;;5045804;28;20017;-43
2023/06/10 08:54:51;;;;;;;3.20;2.90;;;24.40;82.10;;;;;;5034728;28;20043;-43
2023/06/10 08:57:20;;;;;;;4.18;2.72;;;24.40;82.00;;;;;;5045087;28;20025;-44
2023/06/10 08:59:46;;;;;;;2.70;2.50;;;24.40;81.80;;;;;;5045134;28;20123;-44
2023/06/10 09:02:13;;;;;;;3.30;2.70;;;24.40;81.70;;;;;;5045872;28;20033;-43
2023/06/10 09:04:39;;;;;;;3.60;2.70;;;24.40;81.70;;;;;;5044493;28;20021;-43
2023/06/10 09:07:05;;;;;;;4.47;2.63;;;24.50;81.80;;;;;;5045606;28;20040;-43
2023/06/10 09:09:32;;;;;;;4.45;3.10;;;24.60;81.90;;;;;;5044593;28;20017;-44
2023/06/10 09:11:58;;;;;;;3.50;3.13;;;24.60;81.90;;;;;;5045570;28;20025;-43
2023/06/10 09:14:24;;;;;;;3.33;2.97;;;24.60;81.60;;;;;;5044504;28;20653;-44
2023/06/10 09:16:49;;;;;;;3.40;3.05;;;24.70;81.50;;;;;;5045614;28;20021;-43
2023/06/10 09:19:16;;;;;;;5.18;2.50;;;24.70;81.50;;;;;;5044817;28;20052;-43
2023/06/10 09:21:42;;;;;;;3.72;2.90;;;24.70;81.40;;;;;;5044415;28;20098;-43
2023/06/10 09:24:08;;;;;;;4.80;3.03;;;24.70;81.30;;;;;;5044845;28;20094;-43
2023/06/10 09:26:34;;;;;;;3.30;2.78;;;24.80;81.20;;;;;;5045166;28;20028;-46
2023/06/10 09:29:09;;;;;;;3.00;2.70;;;24.90;81.10;;;;;;5045524;28;20021;-43
2023/06/10 09:31:36;;;;;;;2.85;2.65;;;24.90;80.90;;;;;;5044471;28;20056;-44
2023/06/10 09:34:06;;;;;;;3.53;2.72;;;25.00;81.00;;;;;;5045666;28;20056;-43
2023/06/10 09:36:33;;;;;;;3.08;2.75;;;25.00;80.90;;;;;;5044491;28;20029;-43
2023/06/10 09:38:59;;;;;;;3.00;2.72;;;25.00;80.50;;;;;;5044038;28;20445;-43
2023/06/10 09:41:40;;;;;;;2.85;2.60;;;25.10;80.40;;;;;;5044722;28;20025;-44
2023/06/10 09:44:19;;;;;;;2.90;2.33;;;25.10;80.20;;;;;;5045236;28;20100;-43
2023/06/10 09:46:50;;;;;;;3.35;2.58;;;25.20;80.30;;;;;;5043306;28;20059;-43
2023/06/10 09:49:18;;;;;;;3.83;3.17;;;25.20;80.30;;;;;;5044771;28;20021;-42
2023/06/10 09:51:52;;;;;;;4.22;2.78;;;25.30;80.40;;;;;;5044768;28;20063;-43
2023/06/10 09:54:18;;;;;;;3.55;3.05;;;25.40;80.20;;;;;;5043045;28;20059;-43
2023/06/10 09:56:47;;;;;;;3.00;2.80;;;25.40;79.90;;;;;;5044037;28;20040;-43
2023/06/10 09:59:16;;;;;;;5.47;2.88;;;25.50;79.70;;;;;;5043711;28;20036;-44
2023/06/10 10:01:41;;;;;;;4.43;3.10;;;25.50;79.50;;;;;;5044127;28;20029;-42
2023/06/10 10:04:07;;;;;;;4.72;3.10;;;25.60;79.00;;;;;;5044643;28;20029;-42
2023/06/10 10:06:34;;;;;;;3.58;2.97;;;25.60;78.40;;;;;;5043195;28;20024;-44
2023/06/10 10:09:00;;;;;;;5.57;3.33;;;25.70;78.30;;;;;;5045327;28;20044;-43
2023/06/10 10:11:27;;;;;;;3.30;3.00;;;25.70;77.90;;;;;;5043837;28;20021;-43
2023/06/10 10:13:53;;;;;;;2.85;2.65;;;25.70;77.90;;;;;;5043856;28;20024;-43
2023/06/10 10:16:39;;;;;;;3.08;2.78;;;25.80;77.90;;;;;;5043858;28;20048;-43
2023/06/10 10:19:09;;;;;;;2.67;2.47;;;25.90;77.80;;;;;;5024680;28;20021;-43
2023/06/10 10:21:42;;;;;;;3.58;3.25;;;25.90;77.60;;;;;;5039860;28;20037;-43
2023/06/10 10:24:17;;;;;;;3.25;2.65;;;26.00;77.50;;;;;;5044188;28;20032;-44
2023/06/10 10:26:48;;;;;;;2.58;2.35;;;26.00;77.10;;;;;;5043543;28;20802;-43
2023/06/10 10:29:23;;;;;;;3.00;2.63;;;26.10;76.80;;;;;;5043637;28;20483;-44
2023/06/10 10:31:54;;;;;;;3.13;2.60;;;26.10;76.70;;;;;;5043889;28;20083;-43
2023/06/10 10:34:43;;;;;;;3.10;2.58;;;26.20;76.40;;;;;;5023027;28;20771;-43
2023/06/10 10:37:08;;;;;;;3.95;2.90;;;26.20;76.10;;;;;;5040476;28;20037;-43
2023/06/10 10:39:35;;;;;;;3.70;2.90;;;26.20;75.80;;;;;;5042934;28;20037;-44
2023/06/10 10:42:03;;;;;;;3.03;2.67;;;26.30;75.40;;;;;;5042983;28;20032;-43
2023/06/10 10:44:30;;;;;;;2.72;2.50;;;26.30;75.50;;;;;;5042920;28;20033;-43
2023/06/10 10:46:56;;;;;;;3.00;2.70;;;26.40;75.70;;;;;;5043553;28;20098;-44
2023/06/10 10:49:24;;;;;;;2.88;2.58;;;26.40;75.40;;;;;;5043081;28;20021;-43
2023/06/10 10:51:57;;;;;;;2.70;2.50;;;26.40;74.70;;;;;;5042865;28;20044;-43
2023/06/10 10:54:31;;;;;;;3.38;2.65;;;26.40;74.40;;;;;;5043279;28;20044;-44
2023/06/10 10:57:09;;;;;;;2.50;2.30;;;26.40;74.20;;;;;;5042769;28;20033;-43
2023/06/10 10:59:51;;;;;;;5.40;2.67;;;26.40;74.10;;;;;;5043048;28;20071;-42
2023/06/10 11:02:18;;;;;;;;;;;26.50;73.90;;;;;;5044432;28;20107;-43
2023/06/10 11:04:48;;;;;;;2.60;2.40;;;26.50;73.90;;;;;;5043129;28;19925;-42
2023/06/10 11:07:19;;;;;;;2.42;2.22;;;26.60;73.60;;;;;;5043800;28;20054;-43
2023/06/10 11:10:11;;;;;;;2.58;2.33;;;26.60;73.60;;;;;;5043016;28;20031;-43
2023/06/10 11:12:46;;;;;;;3.15;2.72;;;26.60;73.00;;;;;;5042748;28;20028;-43
2023/06/10 11:15:12;;;;;;;3.03;2.72;;;26.70;72.40;;;;;;5043821;28;20107;-42
2023/06/10 11:17:58;;;;;;;2.75;2.38;;;26.70;72.30;;;;;;5041852;28;20017;-43
2023/06/10 11:20:54;;;;;;;2.63;2.42;;;26.70;72.40;;;;;;5042458;28;20128;-43
2023/06/10 11:23:31;;;;;;;4.38;2.30;;;26.80;72.10;;;;;;5042783;28;20025;-43
2023/06/10 11:26:26;;;;;;;2.78;2.50;;;26.80;72.10;;;;;;5042850;28;20563;-42
2023/06/10 11:28:55;;;;;;;4.72;2.83;;;26.90;71.70;;;;;;5043256;28;20067;-43
2023/06/10 11:31:21;;;;;;;3.08;2.78;;;26.90;71.30;;;;;;5042656;28;20087;-43
2023/06/10 11:33:48;;;;;;;3.25;2.63;;;27.00;70.70;;;;;;5042552;28;20056;-43
2023/06/10 11:36:14;;;;;;;2.80;2.60;;;27.10;70.60;;;;;;5044123;28;20033;-43
2023/06/10 11:38:43;;;;;;;3.28;2.85;;;27.20;70.30;;;;;;5041618;28;20667;-43
2023/06/10 11:41:11;;;;;;;6.10;3.10;;;27.20;69.40;;;;;;5043140;28;20033;-44
2023/06/10 11:43:37;;;;;;;4.30;3.08;;;27.20;68.70;;;;;;5042934;28;20565;-43
2023/06/10 11:46:02;;;;;;;3.47;3.15;;;27.20;68.60;;;;;;5042284;28;20550;-42
2023/06/10 11:48:30;;;;;;;3.10;2.80;;;27.20;68.60;;;;;;5042499;28;20025;-44
2023/06/10 11:50:55;;;;;;;3.45;2.42;;;27.20;68.50;;;;;;5043244;28;20248;-42
2023/06/10 11:53:21;;;;;;;2.97;2.65;;;27.30;68.70;;;;;;5041755;28;20048;-43
2023/06/10 11:55:50;;;;;;;2.50;2.30;;;27.40;68.80;;;;;;5042769;28;20029;-42
2023/06/10 11:58:22;;;;;;;3.05;2.70;;;27.40;68.90;;;;;;5043325;28;20491;-43
2023/06/10 12:00:48;;;;;;;2.58;2.38;;;27.50;68.90;;;;;;5042437;28;20110;-43
2023/06/10 12:03:14;;;;;;;3.58;2.33;;;27.50;69.10;;;;;;5042640;28;20383;-44
2023/06/10 12:05:40;;;;;;;3.35;2.13;;;27.50;69.30;;;;;;5045871;28;20021;-43
2023/06/10 12:08:12;;;;;;;2.72;2.30;;;27.60;69.50;;;;;;5046764;28;20029;-44
2023/06/10 12:10:44;;;;;;;2.55;2.35;;;27.50;69.50;;;;;;5045082;28;20028;-43
2023/06/10 12:13:10;;;;;;;4.93;2.80;;;27.60;69.60;;;;;;5046406;28;20032;-43
2023/06/10 12:15:35;;;;;;;4.45;3.17;;;27.60;69.20;;;;;;5045924;28;20028;-44
2023/06/10 12:18:02;;;;;;;2.80;2.60;;;27.60;68.60;;;;;;5046514;28;20358;-43
2023/06/10 12:20:36;;;;;;;2.88;2.67;;;27.70;68.70;;;;;;5044891;28;20037;-44
2023/06/10 12:23:09;;;;;;;3.05;2.75;;;27.70;68.60;;;;;;5042332;28;20028;-43
2023/06/10 12:25:36;;;;;;;3.22;2.65;;;27.80;68.50;;;;;;5045994;28;20116;-43
2023/06/10 12:28:02;;;;;;;3.58;2.95;;;27.80;68.40;;;;;;5045482;28;20029;-43
2023/06/10 12:30:28;;;;;;;3.00;2.80;;;27.80;68.20;;;;;;5045799;28;20028;-42
2023/06/10 12:32:55;;;;;;;3.50;3.17;;;27.80;67.90;;;;;;5045695;28;20025;-42
2023/06/10 12:35:25;;;;;;;3.80;3.50;;;27.70;67.60;;;;;;5045312;28;20025;-43
2023/06/10 12:38:06;;;;;;;3.92;3.58;;;27.80;67.40;;;;;;5047835;28;20552;-44
2023/06/10 12:40:33;;;;;;;3.60;3.30;;;27.90;66.90;;;;;;5053158;28;20552;-43
2023/06/10 12:43:00;;;;;;;3.55;3.25;;;27.90;66.40;;;;;;5045287;28;20170;-43
2023/06/10 12:45:36;;;;;;;3.90;3.42;;;27.90;66.10;;;;;;5045661;28;20024;-43
2023/06/10 12:48:06;;;;;;;4.13;3.50;;;28.00;65.60;;;;;;5045376;28;20060;-43
2023/06/10 12:50:32;;;;;;;4.63;3.22;;;28.00;65.80;;;;;;5045405;28;20017;-42